createdAt,value
2022-09-20T00:00:07.730Z,11.58
2022-09-20T00:00:40.002Z,11.56
2022-09-20T00:01:15.249Z,11.60
2022-09-20T00:01:47.192Z,11.59
2022-09-20T00:02:19.205Z,11.64
2022-09-20T00:02:51.210Z,11.65
2022-09-20T00:03:23.071Z,11.70
2022-09-20T00:03:59.570Z,11.64
2022-09-20T00:04:31.511Z,11.57
2022-09-20T00:05:05.040Z,11.56
2022-09-20T00:05:38.853Z,11.56
2022-09-20T00:06:15.701Z,11.55
2022-09-20T00:06:47.875Z,11.60
2022-09-20T00:07:19.895Z,11.61
2022-09-20T00:07:51.779Z,11.56
2022-09-20T00:08:23.597Z,11.58
2022-09-20T00:08:56.694Z,11.68
2022-09-20T00:09:28.563Z,11.63
2022-09-20T00:10:00.458Z,11.64
2022-09-20T00:10:38.026Z,11.63
2022-09-20T00:11:15.475Z,11.62
2022-09-20T00:11:47.666Z,11.60
2022-09-20T00:12:19.528Z,11.70
2022-09-20T00:12:51.521Z,11.64
2022-09-20T00:13:23.374Z,11.74
2022-09-20T00:13:57.278Z,11.78
2022-09-20T00:14:29.134Z,11.71
2022-09-20T00:15:00.975Z,11.79
2022-09-20T00:15:34.225Z,11.67
2022-09-20T00:16:11.244Z,11.67
2022-09-20T00:16:43.386Z,11.63
2022-09-20T00:17:15.581Z,11.63
2022-09-20T00:17:47.613Z,11.68
2022-09-20T00:18:19.516Z,11.72
2022-09-20T00:18:53.580Z,11.71
2022-09-20T00:19:25.633Z,11.63
2022-09-20T00:19:57.736Z,11.61
2022-09-20T00:20:30.623Z,11.53
2022-09-20T00:21:03.453Z,11.45
2022-09-20T00:21:36.473Z,11.43
2022-09-20T00:22:08.373Z,11.48
2022-09-20T00:22:40.572Z,11.51
2022-09-20T00:23:12.476Z,11.49
2022-09-20T00:23:45.081Z,11.42
2022-09-20T00:24:17.216Z,11.45
2022-09-20T00:24:49.244Z,11.50
2022-09-20T00:25:22.516Z,11.54
2022-09-20T00:25:57.001Z,11.59
2022-09-20T00:26:30.705Z,11.62
2022-09-20T00:27:03.529Z,11.70
2022-09-20T00:27:35.371Z,11.72
2022-09-20T00:28:08.435Z,11.68
2022-09-20T00:28:41.581Z,11.71
2022-09-20T00:29:14.364Z,11.74
2022-09-20T00:29:46.240Z,11.57
2022-09-20T00:30:18.368Z,11.54
2022-09-20T00:30:52.054Z,11.55
2022-09-20T00:31:24.833Z,11.53
2022-09-20T00:31:56.800Z,11.54
2022-09-20T00:32:28.699Z,11.51
2022-09-20T00:33:00.914Z,11.52
2022-09-20T00:33:51.894Z,11.56
2022-09-20T00:34:42.658Z,11.56
2022-09-20T00:35:14.524Z,11.51
2022-09-20T00:35:47.341Z,11.41
2022-09-20T00:36:19.318Z,11.45
2022-09-20T00:36:51.153Z,11.45
2022-09-20T00:37:23.083Z,11.47
2022-09-20T00:37:55.061Z,11.16
2022-09-20T00:38:26.907Z,11.26
2022-09-20T00:39:02.460Z,11.36
2022-09-20T00:39:34.500Z,11.40
2022-09-20T00:40:10.446Z,11.46
2022-09-20T00:40:44.669Z,11.45
2022-09-20T00:41:16.639Z,11.50
2022-09-20T00:41:50.187Z,11.45
2022-09-20T00:42:28.157Z,11.36
2022-09-20T00:43:00.102Z,11.38
2022-09-20T00:43:41.045Z,11.39
2022-09-20T00:44:48.043Z,11.41
2022-09-20T00:45:31.048Z,11.41
2022-09-20T00:46:04.087Z,11.44
2022-09-20T00:46:43.469Z,11.42
2022-09-20T00:47:44.758Z,11.39
2022-09-20T00:48:28.403Z,11.32
2022-09-20T00:49:25.629Z,11.40
2022-09-20T00:50:30.566Z,11.44
2022-09-20T00:51:09.012Z,11.38
2022-09-20T00:51:46.013Z,11.42
2022-09-20T00:52:20.564Z,11.42
2022-09-20T00:53:08.448Z,11.33
2022-09-20T00:53:45.469Z,11.25
2022-09-20T00:54:20.854Z,11.32
2022-09-20T00:54:56.487Z,11.16
2022-09-20T00:55:30.480Z,11.22
2022-09-20T00:56:22.269Z,11.31
2022-09-20T00:56:54.215Z,11.27
2022-09-20T00:57:26.493Z,11.27
2022-09-20T00:58:00.295Z,11.34
2022-09-20T00:58:37.119Z,11.19
2022-09-20T00:59:18.049Z,11.27
2022-09-20T00:59:53.050Z,11.32
2022-09-20T01:00:27.461Z,11.32
2022-09-20T01:00:59.971Z,11.32
2022-09-20T01:01:32.682Z,11.33
2022-09-20T01:02:25.575Z,11.27
2022-09-20T01:03:01.547Z,11.23
2022-09-20T01:03:36.603Z,11.17
2022-09-20T01:04:12.260Z,11.08
2022-09-20T01:04:49.231Z,11.05
2022-09-20T01:05:22.049Z,11.14
2022-09-20T01:05:57.115Z,11.14
2022-09-20T01:06:32.894Z,11.18
2022-09-20T01:07:08.123Z,11.14
2022-09-20T01:07:43.007Z,11.13
2022-09-20T01:08:15.626Z,11.09
2022-09-20T01:08:52.116Z,11.06
2022-09-20T01:09:25.164Z,11.00
2022-09-20T01:09:58.301Z,11.08
2022-09-20T01:10:31.759Z,11.07
2022-09-20T01:11:04.097Z,10.99
2022-09-20T01:11:37.598Z,11.11
2022-09-20T01:12:18.238Z,11.15
2022-09-20T01:12:53.136Z,11.15
2022-09-20T01:13:25.098Z,11.19
2022-09-20T01:13:57.936Z,11.13
2022-09-20T01:14:30.491Z,11.23
2022-09-20T01:15:07.778Z,11.18
2022-09-20T01:15:40.544Z,11.17
2022-09-20T01:16:16.028Z,11.15
2022-09-20T01:16:48.608Z,11.17
2022-09-20T01:17:23.958Z,11.20
2022-09-20T01:17:58.391Z,11.22
2022-09-20T01:18:33.274Z,11.25
2022-09-20T01:19:33.053Z,11.32
2022-09-20T01:20:16.237Z,11.27
2022-09-20T01:20:49.288Z,11.31
2022-09-20T01:21:21.593Z,11.24
2022-09-20T01:21:54.125Z,11.25
2022-09-20T01:22:41.660Z,11.14
2022-09-20T01:23:28.647Z,11.17
2022-09-20T01:24:03.175Z,11.11
2022-09-20T01:25:03.190Z,11.05
2022-09-20T01:25:44.083Z,11.10
2022-09-20T01:26:40.049Z,11.19
2022-09-20T01:27:29.323Z,11.21
2022-09-20T01:28:01.245Z,11.21
2022-09-20T01:28:34.169Z,11.26
2022-09-20T01:29:33.913Z,11.27
2022-09-20T01:30:18.667Z,11.31
2022-09-20T01:30:50.468Z,11.29
2022-09-20T01:31:40.917Z,11.28
2022-09-20T01:32:23.690Z,11.24
2022-09-20T01:33:12.108Z,11.35
2022-09-20T01:33:54.018Z,11.40
2022-09-20T01:34:58.255Z,11.36
2022-09-20T01:35:34.419Z,11.31
2022-09-20T01:36:07.645Z,11.31
2022-09-20T01:36:48.740Z,11.27
2022-09-20T01:37:28.130Z,11.28
2022-09-20T01:38:17.691Z,11.29
2022-09-20T01:39:28.356Z,11.23
2022-09-20T01:40:20.779Z,11.21
2022-09-20T01:40:59.623Z,11.17
2022-09-20T01:41:48.793Z,11.29
2022-09-20T01:42:30.946Z,11.23
2022-09-20T01:43:16.452Z,11.21
2022-09-20T01:44:17.754Z,11.27
2022-09-20T01:44:58.438Z,11.14
2022-09-20T01:45:32.775Z,11.16
2022-09-20T01:46:17.079Z,11.22
2022-09-20T01:47:00.127Z,11.19
2022-09-20T01:47:44.208Z,11.18
2022-09-20T01:48:33.962Z,11.22
2022-09-20T01:49:14.007Z,11.26
2022-09-20T01:50:08.015Z,11.25
2022-09-20T01:51:07.992Z,11.17
2022-09-20T01:52:10.890Z,11.17
2022-09-20T01:53:10.901Z,11.16
2022-09-20T01:54:23.847Z,11.08
2022-09-20T01:55:02.026Z,11.20
2022-09-20T01:56:04.743Z,11.26
2022-09-20T01:57:01.712Z,11.18
2022-09-20T01:57:57.271Z,11.18
2022-09-20T01:59:22.085Z,11.06
2022-09-20T02:00:08.307Z,11.15
2022-09-20T02:01:10.474Z,11.16
2022-09-20T02:01:54.371Z,11.12
2022-09-20T02:02:51.527Z,11.12
2022-09-20T02:03:41.793Z,11.18
2022-09-20T02:04:43.220Z,11.16
2022-09-20T02:05:17.936Z,11.13
2022-09-20T02:06:01.713Z,11.22
2022-09-20T02:07:12.210Z,11.24
2022-09-20T02:07:52.314Z,11.26
2022-09-20T02:08:53.336Z,11.26
2022-09-20T02:09:30.902Z,11.31
2022-09-20T02:10:08.531Z,11.18
2022-09-20T02:10:53.419Z,11.16
2022-09-20T02:11:59.289Z,11.14
2022-09-20T02:12:56.956Z,11.18
2022-09-20T02:13:45.826Z,11.11
2022-09-20T02:14:39.307Z,11.09
2022-09-20T02:15:44.424Z,11.19
2022-09-20T02:16:39.279Z,11.16
2022-09-20T02:17:20.245Z,11.11
2022-09-20T02:18:12.625Z,11.12
2022-09-20T02:19:25.005Z,11.05
2022-09-20T02:20:02.728Z,11.22
2022-09-20T02:21:16.067Z,11.10
2022-09-20T02:22:02.704Z,11.07
2022-09-20T02:23:03.893Z,11.10
2022-09-20T02:23:56.905Z,11.10
2022-09-20T02:24:50.912Z,11.06
2022-09-20T02:25:41.129Z,11.19
2022-09-20T02:26:33.577Z,11.07
2022-09-20T02:27:23.977Z,11.07
2022-09-20T02:28:11.797Z,10.96
2022-09-20T02:29:02.004Z,10.98
2022-09-20T02:30:08.025Z,11.13
2022-09-20T02:30:52.380Z,11.20
2022-09-20T02:31:52.219Z,11.21
2022-09-20T02:32:49.529Z,11.17
2022-09-20T02:33:34.415Z,11.02
2022-09-20T02:34:25.089Z,11.02
2022-09-20T02:35:35.401Z,11.15
2022-09-20T02:36:30.847Z,11.11
2022-09-20T02:37:21.537Z,11.09
2022-09-20T02:38:14.401Z,11.08
2022-09-20T02:39:03.028Z,11.13
2022-09-20T02:39:52.504Z,11.09
2022-09-20T02:41:06.744Z,11.08
2022-09-20T02:41:51.494Z,11.07
2022-09-20T02:42:33.387Z,11.05
2022-09-20T02:43:14.837Z,11.10
2022-09-20T02:44:08.568Z,11.10
2022-09-20T02:45:09.230Z,11.06
2022-09-20T02:45:44.212Z,10.95
2022-09-20T02:46:55.021Z,11.03
2022-09-20T02:47:34.411Z,11.08
2022-09-20T02:48:06.385Z,10.90
2022-09-20T02:49:08.628Z,10.87
2022-09-20T02:50:15.025Z,10.89
2022-09-20T02:50:59.836Z,10.83
2022-09-20T02:51:41.180Z,10.93
2022-09-20T02:52:25.173Z,11.00
2022-09-20T02:53:06.195Z,11.02
2022-09-20T02:54:01.127Z,11.05
2022-09-20T02:54:55.001Z,10.97
2022-09-20T02:56:05.086Z,11.02
2022-09-20T02:56:54.553Z,11.04
2022-09-20T02:57:29.229Z,11.04
2022-09-20T02:58:19.531Z,10.91
2022-09-20T02:59:10.118Z,10.91
2022-09-20T02:59:46.960Z,10.93
2022-09-20T03:00:30.283Z,11.01
2022-09-20T03:01:31.568Z,11.01
2022-09-20T03:02:41.552Z,11.00
2022-09-20T03:03:26.604Z,10.92
2022-09-20T03:04:25.819Z,10.77
2022-09-20T03:05:16.748Z,10.75
2022-09-20T03:05:57.314Z,10.68
2022-09-20T03:07:02.256Z,10.78
2022-09-20T03:07:43.827Z,10.83
2022-09-20T03:08:48.870Z,10.73
2022-09-20T03:09:35.720Z,10.59
2022-09-20T03:10:34.661Z,10.60
2022-09-20T03:11:47.636Z,10.56
2022-09-20T03:12:19.518Z,10.52
2022-09-20T03:13:12.459Z,10.33
2022-09-20T03:14:23.351Z,10.50
2022-09-20T03:15:35.758Z,10.57
2022-09-20T03:16:07.874Z,10.63
2022-09-20T03:17:09.261Z,10.63
2022-09-20T03:17:42.545Z,10.66
2022-09-20T03:18:29.509Z,10.77
2022-09-20T03:19:35.853Z,10.72
2022-09-20T03:20:19.555Z,10.72
2022-09-20T03:21:25.093Z,10.72
2022-09-20T03:22:14.680Z,10.73
2022-09-20T03:23:12.343Z,10.54
2022-09-20T03:24:05.564Z,10.49
2022-09-20T03:25:09.528Z,10.56
2022-09-20T03:25:47.119Z,10.65
2022-09-20T03:26:42.534Z,10.70
2022-09-20T03:27:29.786Z,10.59
2022-09-20T03:28:28.499Z,10.59
2022-09-20T03:29:33.022Z,10.52
2022-09-20T03:30:16.711Z,10.54
2022-09-20T03:30:58.785Z,10.63
2022-09-20T03:31:55.338Z,10.58
2022-09-20T03:33:06.183Z,10.58
2022-09-20T03:33:50.446Z,10.65
2022-09-20T03:34:48.601Z,10.47
2022-09-20T03:35:49.400Z,10.45
2022-09-20T03:37:06.040Z,10.43
2022-09-20T03:38:05.981Z,10.40
2022-09-20T03:39:12.302Z,10.46
2022-09-20T03:40:21.998Z,10.47
2022-09-20T03:41:22.131Z,10.29
2022-09-20T03:42:14.171Z,10.34
2022-09-20T03:43:04.644Z,10.29
2022-09-20T03:43:40.606Z,9.99
2022-09-20T03:44:37.828Z,10.07
2022-09-20T03:45:26.259Z,10.13
2022-09-20T03:46:27.003Z,10.02
2022-09-20T03:47:19.563Z,10.09
2022-09-20T03:48:01.134Z,10.20
2022-09-20T03:49:07.521Z,10.21
2022-09-20T03:50:13.202Z,10.14
2022-09-20T03:51:04.210Z,10.27
2022-09-20T03:51:57.217Z,10.19
2022-09-20T03:52:29.943Z,10.22
2022-09-20T03:53:13.916Z,10.29
2022-09-20T03:54:19.179Z,10.23
2022-09-20T03:55:15.803Z,10.26
2022-09-20T03:56:09.177Z,10.26
2022-09-20T03:57:11.004Z,10.26
2022-09-20T03:58:11.081Z,10.24
2022-09-20T03:58:57.839Z,10.37
2022-09-20T03:59:42.072Z,10.44
2022-09-20T04:00:22.744Z,10.29
2022-09-20T04:01:25.017Z,10.21
2022-09-20T04:02:34.203Z,10.26
2022-09-20T04:03:28.929Z,10.40
2022-09-20T04:04:14.348Z,10.33
2022-09-20T04:05:23.131Z,10.25
2022-09-20T04:06:36.896Z,10.30
2022-09-20T04:07:23.617Z,10.26
2022-09-20T04:08:21.457Z,10.23
2022-09-20T04:09:05.310Z,10.22
2022-09-20T04:09:52.553Z,10.32
2022-09-20T04:10:27.228Z,10.35
2022-09-20T04:11:19.983Z,10.38
2022-09-20T04:12:13.840Z,10.32
2022-09-20T04:12:51.692Z,10.31
2022-09-20T04:13:40.159Z,10.36
2022-09-20T04:14:49.944Z,10.37
2022-09-20T04:16:00.252Z,10.29
2022-09-20T04:16:32.463Z,10.32
2022-09-20T04:17:47.564Z,10.41
2022-09-20T04:18:43.839Z,10.30
2022-09-20T04:19:37.778Z,10.28
2022-09-20T04:20:20.746Z,10.22
2022-09-20T04:21:31.875Z,10.32
2022-09-20T04:22:07.473Z,10.27
2022-09-20T04:22:41.354Z,10.30
2022-09-20T04:23:29.888Z,10.27
2022-09-20T04:24:29.781Z,10.29
2022-09-20T04:25:17.501Z,10.35
2022-09-20T04:25:51.422Z,10.40
2022-09-20T04:26:30.065Z,10.35
2022-09-20T04:27:21.137Z,10.19
2022-09-20T04:28:09.688Z,10.21
2022-09-20T04:28:48.696Z,10.26
2022-09-20T04:29:23.142Z,10.23
2022-09-20T04:30:17.468Z,10.23
2022-09-20T04:30:55.406Z,10.23
2022-09-20T04:31:30.332Z,10.24
2022-09-20T04:32:24.235Z,10.25
2022-09-20T04:33:31.343Z,10.15
2022-09-20T04:34:09.069Z,10.26
2022-09-20T04:35:14.430Z,10.27
2022-09-20T04:36:11.127Z,10.33
2022-09-20T04:37:05.036Z,10.82
2022-09-20T04:37:38.441Z,10.63
2022-09-20T04:38:16.780Z,10.66
2022-09-20T04:38:57.908Z,10.63
2022-09-20T04:40:09.968Z,10.59
2022-09-20T04:41:03.996Z,10.39
2022-09-20T04:41:53.984Z,10.39
2022-09-20T04:43:13.558Z,10.37
2022-09-20T04:43:51.168Z,10.40
2022-09-20T04:44:38.081Z,10.37
2022-09-20T04:45:54.364Z,10.33
2022-09-20T04:46:55.827Z,10.41
2022-09-20T04:47:58.336Z,10.33
2022-09-20T04:48:42.534Z,10.33
2022-09-20T04:49:31.510Z,10.41
2022-09-20T04:50:12.623Z,10.42
2022-09-20T04:51:40.390Z,10.45
2022-09-20T04:52:30.456Z,10.42
2022-09-20T04:53:23.366Z,10.21
2022-09-20T04:54:25.507Z,10.07
2022-09-20T04:55:03.465Z,10.10
2022-09-20T04:55:59.095Z,10.06
2022-09-20T04:57:06.046Z,10.03
2022-09-20T04:57:53.936Z,9.89
2022-09-20T04:58:53.562Z,9.90
2022-09-20T04:59:28.863Z,10.00
2022-09-20T05:00:12.828Z,10.08
2022-09-20T05:01:16.939Z,10.08
2022-09-20T05:02:40.034Z,9.95
2022-09-20T05:03:42.619Z,9.95
2022-09-20T05:04:58.712Z,10.09
2022-09-20T05:05:36.787Z,10.35
2022-09-20T05:06:27.199Z,10.90
2022-09-20T05:07:36.649Z,11.61
2022-09-20T05:08:45.692Z,12.27
2022-09-20T05:09:29.448Z,13.04
2022-09-20T05:10:41.141Z,13.46
2022-09-20T05:11:30.582Z,13.23
2022-09-20T05:12:29.750Z,13.00
2022-09-20T05:13:22.114Z,13.29
2022-09-20T05:14:13.035Z,13.94
2022-09-20T05:15:08.200Z,14.80
2022-09-20T05:16:02.354Z,15.48
2022-09-20T05:16:58.208Z,15.27
2022-09-20T05:17:44.797Z,14.17
2022-09-20T05:18:35.121Z,13.47
2022-09-20T05:19:13.157Z,13.27
2022-09-20T05:20:01.545Z,13.11
2022-09-20T05:20:45.747Z,13.06
2022-09-20T05:22:02.028Z,13.01
2022-09-20T05:22:58.754Z,12.80
2022-09-20T05:24:03.023Z,12.79
2022-09-20T05:24:52.602Z,12.64
2022-09-20T05:25:42.921Z,12.69
2022-09-20T05:26:36.122Z,12.61
2022-09-20T05:27:11.278Z,12.28
2022-09-20T05:28:07.391Z,12.27
2022-09-20T05:29:10.156Z,12.61
2022-09-20T05:30:04.984Z,12.53
2022-09-20T05:30:45.550Z,12.58
2022-09-20T05:31:30.898Z,12.89
2022-09-20T05:32:18.459Z,12.93
2022-09-20T05:33:00.148Z,13.11
2022-09-20T05:34:03.428Z,13.23
2022-09-20T05:34:42.476Z,13.35
2022-09-20T05:35:32.732Z,12.97
2022-09-20T05:36:23.631Z,12.68
2022-09-20T05:37:09.113Z,12.54
2022-09-20T05:37:51.991Z,12.42
2022-09-20T05:39:34.362Z,12.27
2022-09-20T05:40:24.798Z,12.51
2022-09-20T05:41:34.073Z,12.90
2022-09-20T05:42:30.108Z,13.08
2022-09-20T05:43:16.758Z,13.41
2022-09-20T05:43:57.700Z,13.44
2022-09-20T05:45:00.710Z,13.72
2022-09-20T05:45:35.591Z,13.83
2022-09-20T05:46:41.064Z,13.82
2022-09-20T05:47:40.300Z,13.80
2022-09-20T05:48:18.213Z,13.69
2022-09-20T05:49:18.244Z,13.95
2022-09-20T05:50:27.303Z,13.58
2022-09-20T05:51:45.768Z,13.76
2022-09-20T05:52:43.119Z,14.26
2022-09-20T05:53:36.397Z,14.04
2022-09-20T05:54:27.209Z,14.37
2022-09-20T05:55:40.160Z,14.45
2022-09-20T05:56:36.440Z,14.48
2022-09-20T05:57:56.534Z,14.53
2022-09-20T05:58:46.134Z,14.44
2022-09-20T05:59:42.868Z,14.48
2022-09-20T06:00:24.577Z,14.72
2022-09-20T06:01:27.035Z,14.84
2022-09-20T06:02:36.710Z,14.89
2022-09-20T06:03:17.493Z,14.94
2022-09-20T06:03:55.713Z,14.77
2022-09-20T06:04:42.145Z,14.86
2022-09-20T06:05:22.878Z,14.96
2022-09-20T06:06:03.831Z,14.98
2022-09-20T06:06:57.608Z,15.14
2022-09-20T06:07:56.892Z,15.32
2022-09-20T06:08:35.832Z,15.29
2022-09-20T06:09:22.799Z,15.09
2022-09-20T06:10:15.283Z,15.28
2022-09-20T06:11:12.335Z,15.25
2022-09-20T06:11:47.140Z,15.28
2022-09-20T06:12:52.524Z,15.27
2022-09-20T06:13:33.080Z,15.31
2022-09-20T06:14:36.611Z,14.98
2022-09-20T06:15:45.247Z,15.20
2022-09-20T06:16:39.702Z,15.29
2022-09-20T06:17:24.339Z,15.39
2022-09-20T06:18:04.905Z,15.08
2022-09-20T06:18:43.040Z,14.99
2022-09-20T06:19:23.673Z,15.03
2022-09-20T06:20:19.880Z,15.04
2022-09-20T06:21:19.584Z,14.96
2022-09-20T06:21:52.761Z,15.04
2022-09-20T06:22:31.215Z,15.07
2022-09-20T06:23:05.541Z,14.93
2022-09-20T06:23:37.575Z,14.83
2022-09-20T06:24:37.957Z,14.87
2022-09-20T06:25:09.709Z,14.83
2022-09-20T06:26:02.046Z,14.90
2022-09-20T06:26:37.174Z,14.95
2022-09-20T06:27:24.380Z,14.70
2022-09-20T06:27:59.021Z,14.49
2022-09-20T06:28:35.131Z,14.66
2022-09-20T06:29:13.199Z,14.80
2022-09-20T06:29:52.403Z,14.99
2022-09-20T06:30:34.941Z,15.04
2022-09-20T06:31:10.195Z,15.06
2022-09-20T06:31:42.085Z,14.95
2022-09-20T06:32:17.536Z,14.98
2022-09-20T06:32:59.118Z,15.04
2022-09-20T06:33:31.358Z,15.14
2022-09-20T06:34:10.500Z,15.31
2022-09-20T06:34:42.348Z,15.50
2022-09-20T06:35:14.309Z,15.61
2022-09-20T06:36:24.383Z,15.60
2022-09-20T06:38:13.629Z,15.57
2022-09-20T06:39:32.432Z,15.69
2022-09-20T06:40:28.611Z,15.99
2022-09-20T06:41:20.783Z,16.27
2022-09-20T06:41:53.611Z,16.28
2022-09-20T06:42:27.339Z,16.20
2022-09-20T06:43:00.799Z,16.16
2022-09-20T06:43:32.707Z,16.11
2022-09-20T06:44:06.446Z,16.09
2022-09-20T06:44:43.281Z,15.85
2022-09-20T06:45:15.174Z,15.86
2022-09-20T06:45:48.402Z,15.97
2022-09-20T06:46:20.871Z,15.84
2022-09-20T06:46:55.765Z,15.65
2022-09-20T06:47:27.606Z,15.55
2022-09-20T06:48:02.280Z,15.64
2022-09-20T06:48:34.441Z,15.53
2022-09-20T06:49:09.559Z,15.67
2022-09-20T06:49:42.418Z,15.89
2022-09-20T06:50:17.327Z,15.98
2022-09-20T06:50:50.024Z,16.09
2022-09-20T06:51:23.659Z,16.11
2022-09-20T06:51:55.873Z,16.17
2022-09-20T06:52:28.173Z,16.33
2022-09-20T06:53:00.229Z,16.36
2022-09-20T06:53:35.332Z,16.37
2022-09-20T06:54:12.279Z,16.38
2022-09-20T06:54:50.218Z,16.21
2022-09-20T06:55:30.330Z,16.36
2022-09-20T06:56:02.589Z,16.47
2022-09-20T06:56:36.807Z,16.54
2022-09-20T06:57:10.517Z,16.62
2022-09-20T06:57:42.441Z,16.72
2022-09-20T06:58:14.998Z,16.78
2022-09-20T06:58:47.120Z,16.84
2022-09-20T06:59:19.272Z,16.77
2022-09-20T06:59:51.110Z,16.80
2022-09-20T07:00:23.243Z,16.82
2022-09-20T07:00:55.521Z,16.96
2022-09-20T07:01:30.430Z,16.80
2022-09-20T07:02:02.746Z,16.92
2022-09-20T07:02:34.663Z,16.92
2022-09-20T07:03:07.137Z,17.02
2022-09-20T07:03:39.348Z,17.18
2022-09-20T07:04:11.199Z,17.25
2022-09-20T07:04:44.630Z,17.32
2022-09-20T07:05:18.101Z,17.31
2022-09-20T07:05:50.137Z,17.26
2022-09-20T07:06:21.983Z,17.25
2022-09-20T07:07:02.121Z,17.28
2022-09-20T07:07:36.000Z,17.32
2022-09-20T07:08:07.971Z,17.34
2022-09-20T07:08:39.803Z,17.47
2022-09-20T07:09:11.702Z,17.53
2022-09-20T07:09:43.863Z,17.41
2022-09-20T07:10:16.108Z,17.51
2022-09-20T07:10:48.202Z,17.48
2022-09-20T07:11:20.381Z,17.35
2022-09-20T07:11:52.212Z,17.36
2022-09-20T07:12:24.731Z,17.51
2022-09-20T07:13:01.810Z,17.53
2022-09-20T07:13:34.173Z,17.58
2022-09-20T07:14:07.497Z,17.76
2022-09-20T07:14:40.025Z,17.94
2022-09-20T07:15:12.172Z,17.89
2022-09-20T07:15:44.306Z,18.02
2022-09-20T07:16:16.566Z,18.11
2022-09-20T07:16:48.501Z,18.01
2022-09-20T07:17:22.117Z,18.03
2022-09-20T07:17:54.088Z,18.05
2022-09-20T07:18:25.928Z,17.95
2022-09-20T07:18:57.860Z,18.12
2022-09-20T07:19:29.811Z,18.32
2022-09-20T07:20:01.930Z,18.28
2022-09-20T07:20:35.105Z,17.94
2022-09-20T07:21:17.599Z,17.97
2022-09-20T07:21:49.501Z,17.95
2022-09-20T07:22:21.328Z,18.15
2022-09-20T07:22:53.704Z,18.18
2022-09-20T07:23:27.212Z,18.14
2022-09-20T07:23:59.050Z,18.14
2022-09-20T07:24:33.690Z,18.37
2022-09-20T07:25:06.003Z,18.50
2022-09-20T07:25:38.349Z,18.61
2022-09-20T07:26:20.943Z,18.60
2022-09-20T07:27:01.485Z,18.68
2022-09-20T07:27:33.352Z,17.99
2022-09-20T07:28:05.220Z,18.16
2022-09-20T07:28:37.101Z,17.63
2022-09-20T07:29:09.617Z,17.86
2022-09-20T07:29:41.499Z,18.06
2022-09-20T07:30:14.713Z,18.16
2022-09-20T07:30:47.797Z,18.11
2022-09-20T07:31:22.899Z,17.85
2022-09-20T07:31:56.144Z,18.07
2022-09-20T07:32:28.145Z,18.14
2022-09-20T07:33:00.660Z,18.17
2022-09-20T07:33:32.695Z,18.35
2022-09-20T07:34:04.547Z,18.55
2022-09-20T07:34:36.440Z,18.63
2022-09-20T07:35:10.090Z,18.52
2022-09-20T07:35:41.908Z,18.67
2022-09-20T07:36:15.118Z,18.77
2022-09-20T07:36:48.007Z,18.84
2022-09-20T07:37:20.226Z,18.89
2022-09-20T07:37:57.881Z,18.89
2022-09-20T07:38:29.719Z,18.79
2022-09-20T07:39:01.593Z,18.89
2022-09-20T07:39:33.427Z,18.92
2022-09-20T07:40:05.773Z,19.03
2022-09-20T07:40:37.693Z,19.13
2022-09-20T07:41:10.643Z,19.16
2022-09-20T07:41:46.600Z,18.95
2022-09-20T07:42:18.444Z,18.56
2022-09-20T07:42:54.219Z,18.65
2022-09-20T07:43:30.246Z,18.60
2022-09-20T07:44:20.924Z,18.37
2022-09-20T07:44:53.194Z,18.30
2022-09-20T07:45:25.597Z,18.33
2022-09-20T07:45:59.358Z,18.32
2022-09-20T07:46:36.144Z,18.47
2022-09-20T07:47:14.053Z,18.51
2022-09-20T07:47:46.680Z,18.55
2022-09-20T07:48:18.564Z,18.46
2022-09-20T07:48:50.392Z,18.51
2022-09-20T07:49:22.603Z,18.19
2022-09-20T07:49:55.410Z,18.31
2022-09-20T07:50:27.285Z,18.45
2022-09-20T07:51:05.720Z,18.10
2022-09-20T07:51:40.351Z,18.31
2022-09-20T07:52:14.664Z,18.37
2022-09-20T07:52:46.698Z,18.55
2022-09-20T07:53:18.822Z,18.72
2022-09-20T07:53:54.597Z,18.75
2022-09-20T07:54:27.588Z,18.87
2022-09-20T07:54:59.407Z,18.74
2022-09-20T07:55:31.316Z,18.75
2022-09-20T07:56:21.364Z,18.64
2022-09-20T07:56:53.507Z,18.74
2022-09-20T07:57:25.655Z,18.90
2022-09-20T07:57:57.695Z,18.96
2022-09-20T07:58:30.982Z,19.00
2022-09-20T07:59:02.861Z,19.03
2022-09-20T07:59:34.830Z,19.13
2022-09-20T08:00:08.397Z,19.15
2022-09-20T08:00:44.114Z,18.96
2022-09-20T08:01:16.361Z,18.88
2022-09-20T08:01:48.396Z,19.06
2022-09-20T08:02:20.451Z,19.20
2022-09-20T08:03:03.138Z,19.05
2022-09-20T08:03:35.546Z,19.15
2022-09-20T08:04:08.900Z,19.24
2022-09-20T08:04:40.773Z,19.36
2022-09-20T08:05:12.895Z,19.49
2022-09-20T08:05:44.794Z,19.62
2022-09-20T08:06:18.496Z,19.45
2022-09-20T08:06:50.364Z,19.55
2022-09-20T08:07:22.266Z,19.43
2022-09-20T08:07:55.314Z,19.32
2022-09-20T08:08:29.052Z,19.50
2022-09-20T08:09:01.003Z,19.39
2022-09-20T08:09:32.854Z,18.94
2022-09-20T08:10:05.662Z,18.92
2022-09-20T08:10:41.305Z,19.01
2022-09-20T08:11:18.923Z,19.05
2022-09-20T08:11:51.283Z,18.86
2022-09-20T08:14:12.884Z,18.48
2022-09-20T08:14:44.737Z,18.69
2022-09-20T08:15:16.726Z,18.60
2022-09-20T08:15:48.863Z,18.63
2022-09-20T08:16:21.733Z,18.49
2022-09-20T08:16:56.252Z,18.26
2022-09-20T08:17:28.512Z,18.15
2022-09-20T08:18:00.479Z,17.94
2022-09-20T08:18:34.411Z,17.98
2022-09-20T08:19:06.418Z,18.17
2022-09-20T08:19:40.073Z,18.26
2022-09-20T08:20:11.977Z,18.35
2022-09-20T08:20:43.839Z,18.52
2022-09-20T08:21:15.973Z,18.44
2022-09-20T08:21:48.272Z,18.60
2022-09-20T08:22:20.447Z,18.74
2022-09-20T08:23:12.936Z,18.80
2022-09-20T08:23:48.333Z,18.93
2022-09-20T08:24:20.402Z,19.05
2022-09-20T08:24:52.298Z,19.08
2022-09-20T08:25:24.165Z,19.07
2022-09-20T08:25:57.349Z,19.03
2022-09-20T08:26:31.115Z,18.91
2022-09-20T08:27:03.107Z,18.73
2022-09-20T08:27:35.234Z,18.58
2022-09-20T08:28:07.088Z,18.54
2022-09-20T08:28:39.932Z,18.37
2022-09-20T08:29:13.416Z,18.47
2022-09-20T08:29:45.245Z,18.62
2022-09-20T08:30:17.361Z,18.64
2022-09-20T08:30:49.191Z,18.65
2022-09-20T08:31:24.286Z,18.81
2022-09-20T08:31:58.307Z,18.85
2022-09-20T08:32:30.204Z,18.83
2022-09-20T08:33:04.287Z,18.92
2022-09-20T08:33:38.033Z,18.97
2022-09-20T08:34:12.850Z,18.93
2022-09-20T08:34:49.197Z,19.13
2022-09-20T08:35:22.602Z,19.18
2022-09-20T08:35:57.726Z,19.32
2022-09-20T08:36:36.075Z,19.31
2022-09-20T08:37:08.645Z,19.35
2022-09-20T08:37:43.563Z,19.51
2022-09-20T08:40:00.382Z,19.74
2022-09-20T08:40:32.445Z,19.75
2022-09-20T08:41:15.590Z,19.80
2022-09-20T08:41:57.065Z,19.73
2022-09-20T08:42:36.766Z,19.96
2022-09-20T08:43:12.029Z,19.82
2022-09-20T08:43:56.216Z,19.88
2022-09-20T08:44:35.227Z,19.97
2022-09-20T08:45:22.220Z,19.99
2022-09-20T08:45:58.154Z,19.85
2022-09-20T08:46:35.510Z,20.05
2022-09-20T08:47:22.632Z,20.24
2022-09-20T08:47:59.496Z,20.23
2022-09-20T08:48:33.904Z,20.24
2022-09-20T08:49:10.863Z,20.18
2022-09-20T08:49:46.037Z,20.13
2022-09-20T08:50:18.463Z,19.87
2022-09-20T08:50:50.295Z,19.81
2022-09-20T08:51:23.533Z,19.43
2022-09-20T08:51:58.119Z,19.51
2022-09-20T08:52:37.436Z,19.50
2022-09-20T08:53:14.867Z,19.46
2022-09-20T08:53:52.567Z,19.46
2022-09-20T08:54:32.851Z,19.46
2022-09-20T08:55:17.550Z,19.20
2022-09-20T08:55:49.441Z,19.34
2022-09-20T08:56:22.810Z,19.42
2022-09-20T08:56:55.020Z,19.40
2022-09-20T08:57:33.747Z,19.44
2022-09-20T08:58:08.738Z,19.52
2022-09-20T08:58:40.999Z,19.51
2022-09-20T08:59:21.026Z,19.62
2022-09-20T08:59:53.192Z,19.41
2022-09-20T09:00:32.454Z,19.36
2022-09-20T09:01:04.389Z,18.71
2022-09-20T09:01:36.706Z,18.58
2022-09-20T09:02:20.826Z,18.65
2022-09-20T09:02:56.529Z,18.74
2022-09-20T09:03:28.446Z,18.77
2022-09-20T09:04:24.120Z,18.78
2022-09-20T09:04:56.391Z,18.66
2022-09-20T09:05:33.725Z,18.76
2022-09-20T09:06:11.206Z,18.98
2022-09-20T09:06:47.706Z,19.13
2022-09-20T09:07:21.921Z,19.37
2022-09-20T09:07:53.900Z,19.49
2022-09-20T09:08:38.316Z,19.55
2022-09-20T09:09:21.024Z,19.64
2022-09-20T09:09:55.334Z,19.77
2022-09-20T09:10:45.099Z,19.93
2022-09-20T09:11:18.768Z,19.83
2022-09-20T09:11:52.204Z,19.73
2022-09-20T09:12:25.527Z,19.95
2022-09-20T09:12:59.629Z,20.07
2022-09-20T09:13:53.705Z,20.11
2022-09-20T09:14:47.437Z,20.14
2022-09-20T09:15:29.307Z,19.95
2022-09-20T09:16:10.100Z,19.68
2022-09-20T09:16:42.189Z,19.55
2022-09-20T09:17:17.503Z,19.48